Island Park, ID

8:19 PM MDT on August 28, 2014 (GMT -0600)
Centennial Shores | Change Station
CLOSE
Current Station
Personal Weather Station
Location: Island Park, ID
Elevation: 6295 ft
Nearby Weather Stations

Elev 6295 ft 44.44 °N, 111.46 °W | Updated 5 seconds ago

Overcast
Overcast
65.8 °F
Feels Like 65.8 °F
N
17.0
Wind Variable Wind from NW
Gusts 0.0 mph

Today
High -- | Low -- °F
--% Chance of Precip.
Yesterday
High -- | Low -- °F
Precip. -- in
6:43 AM 8:08 PM
Waxing Crescent, 11% visible
Pressure 30.17 in
Visibility 10.0 miles
Clouds Few 12000 ft
Dew Point 39 °F
Humidity 38%
Rainfall -999.00 in
Snow Depth Not available.
UV 0 out of 12
Pollen 8.60 out of 12
Air Quality Not available.
Flu Activity Not available.
METAR KWYS 290210Z AUTO 00000KT 10SM FEW120 15/09 A3017 RMK AO2

More Conditions Fewer Conditions

Pressure 30.17 in
Visibility 10.0 miles
Clouds Few 12000 ft
Dew Point 39 °F
Humidity 38%
Rainfall -999.00 in
Snow Depth Not available.
UV 0 out of 12
Pollen 8.60 out of 12
Air Quality Not available.
Flu Activity Not available.
METAR KWYS 290210Z AUTO 00000KT 10SM FEW120 15/09 A3017 RMK AO2

More Conditions Fewer Conditions

10-Day Weather Forecast

Almanac

Astronomy

Aug. 28, 2014 Rise Set
Actual Time 6:43 AM MDT 8:08 PM MDT
Civil Twilight 6:13 AM MDT 8:38 PM MDT
Nautical Twilight 5:36 AM MDT 9:15 PM MDT
Astronomical Twilight 4:57 AM MDT 9:54 PM MDT
Moon 9:47 AM MDT (8/28) 9:25 PM MDT (8/28)
Length of Visible Light 14h 25m
Length of Day
13h 25m
Tomorrow will be 2m 56s shorter.
Waxing Crescent, 11% of the Moon is Illuminated
Today
Waxing Crescent
Sep 2
First Quarter
Sep 8
Full
Sep 15
Last Quarter
Sep 24
New

Today's Extremes

State Highs State Lows

Community

WunderPhotos

Upload Photos

1,748,124 photos uploaded!

Nearby

Snow Depth

Station Depth Elevation
Somsen Ranch 0 in 6800 ft
Hilts Creek 0 in 8000 ft
Smiley Mountain 1 in 9520 ft
Schwartz Lake 0 in 8620 ft
Wildhorse Divide 0 in 6490 ft

Earthquake Activity

City Distance Mag. Time & Date
No recent earthquake activity has been reported nearby.
Minimum magnitude displayed is 2.5.

Coastal Water Temperatures

Place Temperature
No Stations Reporting

Nearby Weather Stations